Schedule Details


Flight Number: CTN375
Departure: El Prat (LEBL) at 18:20
Arrival: Franjo Tudman (LDZA) at 20:35
Route: DALIN?UN870?ADITA?UZ192?STP?UM985?NOSTA?M985?ABN?Z388?CHI?M167?ROTAR?DCT?ABLAT?DCT?ARGOM

Weather Information
LEBL 092300Z 32003KT 290V360 9999 FEW030 11/06 Q1023 NOSIG
LDZA 092300Z 25004KT CAVOK 05/M00 Q1022 NOSIG
Schedule Frequency

Route Map